Time;durP1;ratioP1;P1;durP2;ratioP2;P2;SDS_P1;SDS_P2;PMS_P1;PMS_P2;Temp;Humidity;BMP_temperature;BMP_pressure;BME280_temperature;BME280_humidity;BME280_pressure;Samples;Min_cycle;Max_cycle;Signal;HPM_P1;HPM_P2
2023/04/14 00:02:13;;;;;;;26.00;5.93;;;5.30;94.40;;;;;;5066250;28;20490;-60
2023/04/14 00:04:40;;;;;;;16.07;6.63;;;5.30;94.00;;;;;;5086327;28;20474;-61
2023/04/14 00:07:07;;;;;;;28.93;10.47;;;5.10;94.50;;;;;;5084916;28;20478;-60
2023/04/14 00:09:33;;;;;;;14.17;5.83;;;5.10;94.90;;;;;;5087707;28;20921;-60
2023/04/14 00:12:01;;;;;;;26.93;11.37;;;5.10;94.80;;;;;;5071107;28;20910;-61
2023/04/14 00:14:28;;;;;;;12.00;5.80;;;5.10;94.60;;;;;;5059937;28;20927;-61
2023/04/14 00:16:55;;;;;;;39.87;12.67;;;5.10;94.40;;;;;;5061841;28;20837;-60
2023/04/14 00:19:21;;;;;;;16.33;7.60;;;5.10;94.40;;;;;;5088020;28;20482;-60
2023/04/14 00:21:48;;;;;;;20.60;8.10;;;5.10;94.60;;;;;;5083309;28;20466;-61
2023/04/14 00:24:15;;;;;;;20.20;7.23;;;5.10;94.60;;;;;;5080662;28;20478;-60
2023/04/14 00:26:42;;;;;;;15.10;7.17;;;5.10;94.50;;;;;;5085891;28;20850;-60
2023/04/14 00:29:10;;;;;;;19.40;7.53;;;5.00;94.10;;;;;;5085685;28;20485;-60
2023/04/14 00:31:36;;;;;;;16.60;4.93;;;4.70;94.60;;;;;;5074600;28;20821;-61
2023/04/14 00:34:03;;;;;;;25.07;10.13;;;4.70;94.60;;;;;;5082516;28;20845;-60
2023/04/14 00:36:30;;;;;;;20.60;7.60;;;4.60;94.30;;;;;;5049611;28;20497;-60
2023/04/14 00:38:56;;;;;;;34.90;10.67;;;4.40;94.60;;;;;;5072466;28;20479;-61
2023/04/14 00:41:23;;;;;;;21.47;7.93;;;4.20;95.00;;;;;;5070716;28;20474;-61
2023/04/14 00:43:53;;;;;;;17.00;7.80;;;4.20;95.30;;;;;;5066872;28;20563;-61
2023/04/14 00:46:21;;;;;;;18.60;7.60;;;4.20;95.40;;;;;;5073605;28;20478;-61
2023/04/14 00:48:48;;;;;;;19.60;8.03;;;4.30;95.40;;;;;;5083022;28;20497;-60
2023/04/14 00:51:15;;;;;;;12.40;5.43;;;4.30;95.10;;;;;;5084556;28;20839;-60
2023/04/14 00:53:42;;;;;;;14.07;6.80;;;4.40;95.00;;;;;;5064201;28;20724;-60
2023/04/14 00:56:09;;;;;;;17.67;7.43;;;4.40;95.00;;;;;;5074947;28;20477;-60
2023/04/14 00:58:36;;;;;;;14.50;7.10;;;4.40;94.70;;;;;;5084157;28;21004;-60
2023/04/14 01:01:03;;;;;;;26.17;11.00;;;4.50;94.50;;;;;;5069788;28;20625;-60
2023/04/14 01:03:31;;;;;;;21.27;7.80;;;;;;;;;;5049027;28;20908;-61
2023/04/14 01:05:58;;;;;;;32.27;12.03;;;4.20;95.20;;;;;;5072329;28;20490;-61
2023/04/14 01:08:26;;;;;;;21.60;9.43;;;4.10;95.80;;;;;;5083983;28;20485;-60
2023/04/14 01:11:02;;;;;;;21.27;9.27;;;4.10;96.10;;;;;;5086566;28;20481;-60
2023/04/14 01:13:35;;;;;;;20.73;7.13;;;4.10;95.80;;;;;;5090485;28;20485;-60
2023/04/14 01:16:07;;;;;;;29.93;12.27;;;4.20;95.40;;;;;;5084481;28;20880;-61
2023/04/14 01:18:46;;;;;;;16.70;7.77;;;4.20;95.00;;;;;;5090902;28;21015;-60
2023/04/14 01:21:17;;;;;;;12.00;5.90;;;4.20;94.90;;;;;;5079372;28;20550;-60
2023/04/14 01:24:04;;;;;;;27.03;9.70;;;4.00;94.50;;;;;;5085973;28;20480;-60
2023/04/14 01:26:33;;;;;;;17.33;7.00;;;3.90;95.40;;;;;;5084032;28;21037;-60
2023/04/14 01:29:24;;;;;;;33.70;13.00;;;3.70;96.30;;;;;;5088737;28;20473;-60
2023/04/14 01:32:01;;;;;;;17.73;7.53;;;3.50;96.50;;;;;;5068714;28;20486;-60
2023/04/14 01:34:34;;;;;;;19.83;6.67;;;3.50;97.10;;;;;;5083349;28;20564;-61
2023/04/14 01:37:06;;;;;;;34.33;13.70;;;3.60;96.80;;;;;;5084995;28;20469;-60
2023/04/14 01:39:37;;;;;;;14.40;6.67;;;3.70;96.10;;;;;;5085124;28;20557;-61
2023/04/14 01:42:07;;;;;;;25.33;9.83;;;3.70;95.80;;;;;;5068249;28;20471;-60
2023/04/14 01:44:35;;;;;;;25.10;8.70;;;3.90;95.50;;;;;;5057948;28;21031;-61
2023/04/14 01:47:07;;;;;;;19.93;8.43;;;3.90;95.20;;;;;;5070230;28;21022;-60
2023/04/14 01:49:38;;;;;;;15.87;7.00;;;3.90;95.30;;;;;;5063247;28;20509;-61
2023/04/14 01:52:08;;;;;;;29.83;10.90;;;3.90;95.20;;;;;;5062117;28;20822;-60
2023/04/14 01:54:35;;;;;;;14.37;5.63;;;3.90;95.30;;;;;;5074683;28;20478;-61
2023/04/14 01:57:03;;;;;;;28.83;9.20;;;3.80;95.50;;;;;;5058681;28;20475;-60
2023/04/14 01:59:33;;;;;;;22.90;7.17;;;3.70;95.70;;;;;;5073231;28;20478;-61
2023/04/14 02:02:02;;;;;;;35.47;13.30;;;3.40;96.10;;;;;;5043918;28;20502;-60
2023/04/14 02:04:32;;;;;;;18.33;6.60;;;3.30;96.80;;;;;;5070022;28;20830;-60
2023/04/14 02:07:02;;;;;;;22.50;9.10;;;3.20;96.70;;;;;;5071878;28;20483;-61
2023/04/14 02:09:30;;;;;;;17.63;6.63;;;3.10;96.40;;;;;;5074815;28;20486;-60
2023/04/14 02:12:01;;;;;;;41.87;13.13;;;2.90;96.10;;;;;;5038138;28;20506;-60
2023/04/14 02:14:30;;;;;;;22.43;7.20;;;3.00;96.60;;;;;;5036462;28;20472;-60
2023/04/14 02:16:59;;;;;;;28.23;10.13;;;3.10;96.50;;;;;;5058974;28;20471;-60
2023/04/14 02:19:26;;;;;;;15.40;6.10;;;3.20;96.40;;;;;;5075689;28;20845;-60
2023/04/14 02:21:55;;;;;;;28.80;9.47;;;3.30;96.00;;;;;;5066971;28;20474;-60
2023/04/14 02:24:23;;;;;;;23.30;8.63;;;3.30;96.10;;;;;;5060768;28;21239;-60
2023/04/14 02:26:56;;;;;;;21.27;6.83;;;2.60;95.60;;;;;;5069502;28;20485;-61
2023/04/14 02:29:25;;;;;;;20.37;7.57;;;3.50;95.90;;;;;;5078020;28;20493;-60
2023/04/14 02:31:58;;;;;;;18.83;7.40;;;3.50;95.50;;;;;;5067005;28;20475;-60
2023/04/14 02:34:30;;;;;;;16.70;6.20;;;3.40;95.50;;;;;;5066321;28;20490;-60
2023/04/14 02:37:02;;;;;;;30.83;11.17;;;3.30;95.60;;;;;;5052854;28;20494;-60
2023/04/14 02:39:31;;;;;;;16.57;6.27;;;3.10;95.70;;;;;;5069991;28;20481;-61
2023/04/14 02:42:04;;;;;;;34.40;10.77;;;3.00;96.70;;;;;;5077047;28;20574;-60
2023/04/14 02:44:35;;;;;;;18.20;6.90;;;2.90;96.90;;;;;;5065058;28;20797;-60
2023/04/14 02:47:06;;;;;;;24.33;7.57;;;2.90;97.10;;;;;;5060892;28;20710;-60
2023/04/14 02:49:36;;;;;;;20.13;6.97;;;2.60;96.70;;;;;;5069294;28;21002;-60
2023/04/14 02:52:05;;;;;;;32.97;9.87;;;2.80;96.50;;;;;;5074472;28;20482;-60
2023/04/14 02:54:35;;;;;;;17.43;7.60;;;2.80;96.30;;;;;;5077017;28;21282;-60
2023/04/14 02:57:02;;;;;;;34.00;10.83;;;2.70;96.30;;;;;;5069667;28;20543;-60
2023/04/14 02:59:30;;;;;;;19.73;6.97;;;2.70;96.50;;;;;;5065998;28;20513;-60
2023/04/14 03:02:00;;;;;;;38.90;11.47;;;2.60;96.60;;;;;;5058432;28;21014;-60
2023/04/14 03:04:29;;;;;;;15.87;6.50;;;2.70;96.90;;;;;;5068786;28;20495;-60
2023/04/14 03:06:56;;;;;;;35.53;11.60;;;2.70;97.10;;;;;;5067844;28;20558;-60
2023/04/14 03:09:25;;;;;;;18.53;7.17;;;2.80;96.80;;;;;;5066783;28;20490;-60
2023/04/14 03:11:53;;;;;;;24.00;8.27;;;2.90;97.00;;;;;;5054856;28;20471;-60
2023/04/14 03:14:21;;;;;;;22.47;6.90;;;3.00;96.50;;;;;;5069523;28;20482;-60
2023/04/14 03:16:50;;;;;;;21.87;8.37;;;3.10;96.20;;;;;;5061629;28;20495;-60
2023/04/14 03:19:18;;;;;;;20.73;6.17;;;;;;;;;;5060900;28;22066;-60
2023/04/14 03:21:45;;;;;;;13.17;5.47;;;2.70;95.70;;;;;;5053761;28;20859;-60
2023/04/14 03:24:18;;;;;;;17.30;6.50;;;2.50;96.30;;;;;;5062410;28;21053;-60
2023/04/14 03:26:48;;;;;;;26.00;5.60;;;2.40;97.10;;;;;;5067873;28;20555;-60
2023/04/14 03:29:18;;;;;;;12.67;5.17;;;2.40;97.60;;;;;;5068492;28;20474;-60
2023/04/14 03:31:46;;;;;;;20.90;7.03;;;2.80;97.70;;;;;;5059462;28;20975;-59
2023/04/14 03:34:14;;;;;;;27.83;6.00;;;2.70;97.10;;;;;;5054988;28;21049;-60
2023/04/14 03:36:43;;;;;;;11.93;5.53;;;2.80;97.00;;;;;;5072768;28;20475;-60
2023/04/14 03:39:13;;;;;;;17.43;6.50;;;2.80;96.80;;;;;;5017048;28;20868;-60
2023/04/14 03:41:46;;;;;;;18.27;7.10;;;2.80;96.50;;;;;;5046434;28;20485;-60
2023/04/14 03:44:18;;;;;;;16.27;5.47;;;2.80;96.30;;;;;;5072043;28;20493;-60
2023/04/14 03:46:44;;;;;;;30.63;7.07;;;2.60;96.80;;;;;;5065874;28;20881;-60
2023/04/14 03:49:15;;;;;;;13.73;5.77;;;2.40;97.20;;;;;;5070699;28;20487;-60
2023/04/14 03:51:43;;;;;;;11.30;5.27;;;2.30;97.50;;;;;;5063031;28;20482;-60
2023/04/14 03:54:14;;;;;;;17.63;6.20;;;2.20;97.30;;;;;;5054461;28;20490;-60
2023/04/14 03:56:45;;;;;;;12.13;4.63;;;2.30;97.70;;;;;;5075108;28;20516;-60
2023/04/14 03:59:16;;;;;;;12.47;5.57;;;2.40;97.70;;;;;;5060295;28;20474;-60
2023/04/14 04:01:43;;;;;;;19.40;7.67;;;2.50;97.60;;;;;;5063991;28;20528;-60
2023/04/14 04:04:11;;;;;;;12.77;5.37;;;2.60;97.30;;;;;;5075006;28;20487;-60
2023/04/14 04:06:39;;;;;;;15.63;6.33;;;2.60;96.80;;;;;;5075728;28;20474;-60
2023/04/14 04:09:07;;;;;;;24.87;8.67;;;2.60;96.60;;;;;;5066040;28;20561;-60
2023/04/14 04:11:35;;;;;;;20.03;7.07;;;2.50;96.70;;;;;;5050453;28;20489;-60
2023/04/14 04:14:04;;;;;;;27.43;9.13;;;2.20;97.50;;;;;;5057560;28;20475;-60
2023/04/14 04:16:34;;;;;;;23.70;9.33;;;2.00;98.00;;;;;;5055234;28;20556;-60
2023/04/14 04:19:05;;;;;;;39.03;13.10;;;1.90;98.70;;;;;;5068602;28;20501;-60
2023/04/14 04:21:33;;;;;;;24.90;6.60;;;1.70;99.00;;;;;;5076100;28;20512;-60
2023/04/14 04:24:01;;;;;;;37.33;12.17;;;1.70;99.60;;;;;;5060777;28;20485;-60
2023/04/14 04:26:29;;;;;;;31.20;9.43;;;1.60;99.90;;;;;;5061085;28;21032;-60
2023/04/14 04:28:56;;;;;;;13.13;5.90;;;1.70;99.90;;;;;;5074648;28;20494;-60
2023/04/14 04:31:24;;;;;;;24.17;7.00;;;1.70;99.90;;;;;;5060770;28;20900;-60
2023/04/14 04:33:53;;;;;;;24.07;8.87;;;1.80;99.90;;;;;;5062239;28;20573;-60
2023/04/14 04:36:20;;;;;;;24.13;8.20;;;1.80;99.10;;;;;;5059186;28;20522;-60
2023/04/14 04:38:48;;;;;;;15.50;5.07;;;1.80;98.70;;;;;;5065158;28;20478;-60
2023/04/14 04:41:25;;;;;;;19.87;6.90;;;1.70;99.00;;;;;;5071288;28;20466;-60
2023/04/14 04:43:52;;;;;;;32.93;11.10;;;1.70;99.90;;;;;;5075315;28;20835;-60
2023/04/14 04:46:37;;;;;;;22.03;7.17;;;1.70;99.90;;;;;;5076524;28;20475;-60
2023/04/14 04:49:05;;;;;;;26.93;9.30;;;1.70;99.90;;;;;;5064399;28;20478;-60
2023/04/14 04:51:32;;;;;;;31.57;9.57;;;1.80;99.90;;;;;;5062575;28;20482;-60
2023/04/14 04:53:59;;;;;;;26.37;9.93;;;1.80;99.90;;;;;;5045430;28;21002;-60
2023/04/14 04:56:26;;;;;;;22.80;8.33;;;1.80;99.90;;;;;;5066408;28;21151;-60
2023/04/14 04:58:52;;;;;;;32.60;10.10;;;0.00;99.10;;;;;;5071736;28;20930;-60
2023/04/14 05:01:19;;;;;;;14.67;5.57;;;1.80;99.90;;;;;;5075920;28;20478;-60
2023/04/14 05:03:46;;;;;;;21.03;8.60;;;1.80;99.90;;;;;;5074448;28;20485;-60
2023/04/14 05:06:15;;;;;;;15.03;5.87;;;1.80;99.90;;;;;;5065660;28;20473;-60
2023/04/14 05:08:42;;;;;;;21.90;6.70;;;1.70;99.90;;;;;;5074843;28;20824;-60
2023/04/14 05:11:08;;;;;;;22.20;8.33;;;1.70;99.90;;;;;;5071141;28;21157;-60
2023/04/14 05:13:35;;;;;;;20.77;8.00;;;1.80;99.90;;;;;;5066261;28;20643;-60
2023/04/14 05:16:03;;;;;;;34.23;10.90;;;1.90;99.90;;;;;;5066553;28;20483;-60
2023/04/14 05:18:30;;;;;;;18.37;6.63;;;1.90;99.90;;;;;;5069474;28;20574;-60
2023/04/14 05:21:04;;;;;;;38.47;11.40;;;2.00;99.90;;;;;;5071095;28;20478;-60
2023/04/14 05:23:33;;;;;;;24.83;8.60;;;2.00;99.90;;;;;;5060035;28;20470;-60
2023/04/14 05:26:00;;;;;;;35.53;11.30;;;2.10;99.90;;;;;;5063124;28;20483;-60
2023/04/14 05:28:27;;;;;;;25.17;7.30;;;;;;;;;;5062426;28;20604;-60
2023/04/14 05:30:54;;;;;;;27.57;9.07;;;2.30;99.90;;;;;;5067902;28;20474;-60
2023/04/14 05:33:21;;;;;;;24.77;8.27;;;2.50;99.90;;;;;;5055920;28;20608;-60
2023/04/14 05:35:49;;;;;;;21.77;7.57;;;2.70;99.90;;;;;;5067499;28;20502;-60
2023/04/14 05:38:16;;;;;;;14.30;4.80;;;2.80;99.60;;;;;;5063976;28;20474;-60
2023/04/14 05:40:44;;;;;;;12.67;5.70;;;3.00;99.40;;;;;;5071646;28;20475;-60
2023/04/14 05:43:11;;;;;;;28.60;7.73;;;3.10;99.30;;;;;;5075395;28;20477;-60
2023/04/14 05:45:38;;;;;;;19.33;8.07;;;3.20;99.20;;;;;;5074963;28;21013;-60
2023/04/14 05:48:05;;;;;;;29.23;11.33;;;3.30;99.10;;;;;;5063849;28;20937;-60
2023/04/14 05:50:32;;;;;;;22.70;9.83;;;3.50;99.10;;;;;;5048330;28;20495;-60
2023/04/14 05:52:59;;;;;;;35.63;14.73;;;3.60;99.00;;;;;;5066498;28;20857;-60
2023/04/14 05:55:26;;;;;;;22.63;11.13;;;3.70;98.80;;;;;;5057168;28;20565;-60
2023/04/14 05:57:55;;;;;;;35.93;11.60;;;3.90;98.90;;;;;;5050379;28;20897;-60
2023/04/14 06:00:23;;;;;;;18.90;7.57;;;4.10;99.20;;;;;;5076043;28;20480;-60
2023/04/14 06:02:50;;;;;;;17.63;7.87;;;4.50;99.50;;;;;;5068001;28;20491;-60
2023/04/14 06:05:17;;;;;;;10.10;5.97;;;4.80;98.60;;;;;;5078278;28;20486;-60
2023/04/14 06:07:45;;;;;;;17.53;8.90;;;5.20;98.70;;;;;;5079252;28;20478;-61
2023/04/14 06:10:12;;;;;;;13.67;6.20;;;5.50;97.90;;;;;;5096000;28;20517;-60
2023/04/14 06:12:39;;;;;;;17.30;8.73;;;5.50;97.40;;;;;;5072146;28;20489;-60
2023/04/14 06:15:08;;;;;;;33.77;12.23;;;8.30;98.50;;;;;;5076047;28;20827;-60
2023/04/14 06:17:38;;;;;;;17.87;7.80;;;7.50;98.20;;;;;;5048243;28;20485;-61
2023/04/14 06:20:06;;;;;;;34.37;12.43;;;6.60;98.10;;;;;;5097827;28;20853;-61
2023/04/14 06:22:33;;;;;;;24.40;10.00;;;7.10;97.60;;;;;;5094981;28;20473;-61
2023/04/14 06:25:00;;;;;;;35.93;11.43;;;7.60;97.00;;;;;;5096854;28;20480;-61
2023/04/14 06:27:26;;;;;;;30.97;7.77;;;8.20;96.60;;;;;;5056479;28;20591;-61
2023/04/14 06:29:53;;;;;;;20.13;9.47;;;8.60;95.50;;;;;;5075436;28;21207;-61
2023/04/14 06:32:21;;;;;;;16.20;6.30;;;9.00;94.70;;;;;;5065245;28;20475;-61
2023/04/14 06:34:48;;;;;;;12.50;5.60;;;9.70;95.50;;;;;;5086629;28;20474;-62
2023/04/14 06:37:15;;;;;;;13.40;7.47;;;10.30;95.00;;;;;;5051754;28;21029;-61
2023/04/14 06:39:42;;;;;;;15.47;7.47;;;10.60;93.20;;;;;;5097217;28;20465;-61
2023/04/14 06:42:11;;;;;;;15.50;6.37;;;10.70;91.70;;;;;;5065838;28;20486;-62
2023/04/14 06:44:38;;;;;;;9.43;5.53;;;10.90;91.70;;;;;;5068624;28;20477;-62
2023/04/14 06:47:05;;;;;;;16.13;8.90;;;11.30;92.40;;;;;;5063625;28;20557;-61
2023/04/14 06:49:33;;;;;;;14.20;6.83;;;12.20;92.30;;;;;;5055777;28;20502;-62
2023/04/14 06:52:00;;;;;;;16.70;11.03;;;12.80;91.90;;;;;;5068511;28;20480;-62
2023/04/14 06:54:26;;;;;;;9.80;6.07;;;13.30;91.20;;;;;;5069240;28;20485;-62
2023/04/14 06:56:53;;;;;;;15.57;7.77;;;13.90;90.70;;;;;;5088201;28;20611;-62
2023/04/14 06:59:21;;;;;;;11.47;6.20;;;13.80;89.80;;;;;;5072639;28;20990;-62
2023/04/14 07:01:48;;;;;;;7.50;5.50;;;13.70;88.50;;;;;;5077443;28;20975;-61
2023/04/14 07:04:15;;;;;;;14.70;4.80;;;13.90;90.00;;;;;;5083943;28;20469;-62
2023/04/14 07:06:43;;;;;;;13.70;5.33;;;13.60;89.60;;;;;;5092872;28;20470;-61
2023/04/14 07:09:09;;;;;;;8.03;4.93;;;13.20;90.10;;;;;;5088739;28;20481;-62
2023/04/14 07:11:36;;;;;;;15.43;5.77;;;13.00;90.70;;;;;;5094603;28;20486;-61
2023/04/14 07:14:03;;;;;;;15.13;7.87;;;12.60;91.20;;;;;;5076187;28;20487;-62
2023/04/14 07:16:29;;;;;;;15.80;7.40;;;12.50;91.40;;;;;;5075436;28;20486;-62
2023/04/14 07:18:56;;;;;;;24.67;9.80;;;12.00;91.50;;;;;;5068643;28;20623;-61
2023/04/14 07:21:23;;;;;;;10.23;5.80;;;11.60;91.80;;;;;;5076655;28;20855;-61
2023/04/14 07:23:51;;;;;;;13.17;6.27;;;11.20;92.20;;;;;;5065588;28;20483;-61
2023/04/14 07:26:17;;;;;;;11.93;4.90;;;10.90;91.90;;;;;;5072727;28;20490;-61
2023/04/14 07:28:44;;;;;;;8.10;5.13;;;10.60;92.00;;;;;;5054119;28;20531;-61
2023/04/14 07:31:12;;;;;;;14.03;5.30;;;10.30;92.30;;;;;;5082948;28;20524;-61
2023/04/14 07:33:39;;;;;;;16.80;6.63;;;10.30;93.60;;;;;;5077300;28;20877;-61
2023/04/14 07:36:06;;;;;;;15.30;7.67;;;10.20;93.90;;;;;;5081739;28;20481;-61
2023/04/14 07:38:33;;;;;;;11.53;6.17;;;10.30;93.40;;;;;;5063620;28;20485;-61
2023/04/14 07:41:04;;;;;;;16.57;8.30;;;10.40;94.20;;;;;;5078189;28;20479;-61
2023/04/14 07:43:33;;;;;;;10.67;5.77;;;10.50;94.10;;;;;;5077066;28;20467;-61
2023/04/14 07:46:03;;;;;;;20.50;11.73;;;10.50;93.90;;;;;;5062284;28;20860;-60
2023/04/14 07:48:30;;;;;;;14.47;7.60;;;10.50;94.30;;;;;;5064003;28;20482;-61
2023/04/14 07:50:57;;;;;;;23.73;10.77;;;10.60;94.00;;;;;;5057238;28;20475;-61
2023/04/14 07:53:24;;;;;;;26.37;11.43;;;10.50;93.80;;;;;;5059663;28;20514;-61
2023/04/14 07:55:51;;;;;;;19.77;9.97;;;10.50;93.80;;;;;;5048792;28;21045;-61
2023/04/14 07:58:19;;;;;;;10.07;6.10;;;10.60;94.00;;;;;;5071388;28;20493;-61
2023/04/14 08:00:45;;;;;;;12.97;6.60;;;10.60;93.50;;;;;;5074157;28;20478;-61
2023/04/14 08:03:13;;;;;;;13.17;5.77;;;10.50;93.70;;;;;;5073166;28;20564;-61
2023/04/14 08:05:40;;;;;;;12.60;6.67;;;10.60;93.60;;;;;;5084128;28;20842;-61
2023/04/14 08:08:08;;;;;;;18.23;8.40;;;10.80;93.90;;;;;;5087531;28;20469;-61
2023/04/14 08:10:37;;;;;;;14.07;6.70;;;10.60;92.80;;;;;;5058933;28;20673;-61
2023/04/14 08:13:04;;;;;;;19.87;10.33;;;10.80;94.10;;;;;;5055471;28;20688;-61
2023/04/14 08:15:32;;;;;;;13.40;5.73;;;10.80;93.10;;;;;;5064760;28;20486;-61
2023/04/14 08:17:58;;;;;;;27.13;11.27;;;11.00;94.30;;;;;;5078868;28;20482;-61
2023/04/14 08:20:25;;;;;;;27.10;9.50;;;11.10;92.70;;;;;;5054736;28;20539;-61
2023/04/14 08:22:52;;;;;;;10.33;6.10;;;11.20;93.00;;;;;;5075993;28;20473;-61
2023/04/14 08:25:19;;;;;;;14.90;5.50;;;11.10;93.00;;;;;;5087098;28;20923;-61
2023/04/14 08:27:45;;;;;;;14.20;7.30;;;11.20;93.30;;;;;;5072389;28;20582;-61
2023/04/14 08:30:13;;;;;;;12.67;5.27;;;11.20;93.80;;;;;;5076232;28;20478;-61
2023/04/14 08:32:41;;;;;;;15.40;7.57;;;11.10;93.40;;;;;;5085701;28;20836;-61
2023/04/14 08:35:08;;;;;;;19.40;7.40;;;11.10;92.90;;;;;;5086475;28;20955;-61
2023/04/14 08:37:35;;;;;;;34.23;7.33;;;11.10;92.70;;;;;;5070217;28;20493;-62
2023/04/14 08:40:03;;;;;;;24.33;10.90;;;11.30;92.60;;;;;;5072776;28;21400;-61
2023/04/14 08:42:32;;;;;;;18.23;8.33;;;11.30;93.20;;;;;;5061677;28;20482;-61
2023/04/14 08:44:58;;;;;;;18.17;8.20;;;11.50;93.40;;;;;;5068479;28;20486;-62
2023/04/14 08:47:29;;;;;;;13.43;7.17;;;11.60;92.80;;;;;;5083021;28;20477;-62
2023/04/14 08:50:02;;;;;;;14.27;6.73;;;;;;;;;;5071893;28;21008;-61
2023/04/14 08:52:31;;;;;;;15.53;7.50;;;11.40;91.50;;;;;;5085256;28;21036;-62
2023/04/14 08:55:01;;;;;;;25.93;10.43;;;11.50;93.20;;;;;;5065871;28;20489;-61
2023/04/14 08:57:31;;;;;;;16.13;7.83;;;11.60;93.10;;;;;;5081366;28;20478;-62
2023/04/14 08:59:58;;;;;;;21.77;9.93;;;11.80;92.60;;;;;;5086855;28;20482;-62
2023/04/14 09:02:26;;;;;;;15.17;7.20;;;12.00;91.90;;;;;;5086886;28;20961;-62
2023/04/14 09:04:53;;;;;;;21.93;8.93;;;12.30;91.90;;;;;;5072643;28;20974;-62
2023/04/14 09:07:22;;;;;;;19.03;7.20;;;12.20;91.30;;;;;;5088500;28;20978;-62
2023/04/14 09:09:49;;;;;;;15.93;7.80;;;12.20;91.60;;;;;;5065000;28;20474;-61
2023/04/14 09:12:17;;;;;;;16.43;5.57;;;12.40;90.40;;;;;;5085108;28;20473;-61
2023/04/14 09:14:45;;;;;;;14.03;8.10;;;12.60;91.20;;;;;;5081494;28;20570;-62
2023/04/14 09:17:12;;;;;;;13.50;4.20;;;12.70;91.30;;;;;;5075921;28;20992;-62
2023/04/14 09:19:39;;;;;;;15.73;5.03;;;12.90;91.50;;;;;;5070761;28;20486;-62
2023/04/14 09:22:06;;;;;;;25.43;10.30;;;13.30;91.70;;;;;;5063150;28;21430;-62
2023/04/14 09:24:35;;;;;;;23.37;7.53;;;13.70;90.90;;;;;;5058587;28;20482;-62
2023/04/14 09:27:03;;;;;;;18.93;6.43;;;14.10;90.40;;;;;;5065131;28;20474;-62
2023/04/14 09:29:30;;;;;;;15.17;5.40;;;14.10;91.30;;;;;;5029367;28;20592;-62
2023/04/14 09:31:57;;;;;;;21.50;10.23;;;14.20;90.00;;;;;;5055531;28;20482;-62
2023/04/14 09:34:24;;;;;;;12.33;5.20;;;14.40;90.20;;;;;;5054205;28;20478;-62
2023/04/14 09:37:01;;;;;;;12.97;6.97;;;14.30;90.00;;;;;;5077287;28;20478;-62
2023/04/14 09:39:28;;;;;;;11.53;6.37;;;14.40;88.30;;;;;;5054540;28;20924;-62
2023/04/14 09:41:56;;;;;;;15.13;6.90;;;14.00;86.10;;;;;;5077627;28;20478;-62
2023/04/14 09:44:23;;;;;;;15.70;6.97;;;13.90;86.20;;;;;;5078669;28;20485;-62
2023/04/14 09:47:04;;;;;;;9.23;4.80;;;14.00;88.80;;;;;;5074388;28;20758;-62
2023/04/14 09:49:31;;;;;;;9.40;4.93;;;13.60;85.80;;;;;;5041728;28;21102;-62
2023/04/14 09:52:03;;;;;;;21.00;8.33;;;14.00;90.00;;;;;;5072450;28;20510;-62
2023/04/14 09:54:30;;;;;;;11.67;6.30;;;14.20;89.30;;;;;;5049170;28;20481;-63
2023/04/14 09:56:58;;;;;;;16.90;8.57;;;14.40;89.00;;;;;;5073355;28;20486;-62
2023/04/14 09:59:33;;;;;;;12.57;5.20;;;14.50;89.80;;;;;;5049881;28;20487;-63
2023/04/14 10:02:00;;;;;;;17.87;8.33;;;14.30;88.20;;;;;;5049043;28;21235;-61
2023/04/14 10:04:27;;;;;;;14.80;6.20;;;14.40;86.80;;;;;;5033812;28;20492;-62
2023/04/14 10:06:57;;;;;;;15.10;6.40;;;14.40;88.70;;;;;;5043529;28;20517;-62
2023/04/14 10:09:26;;;;;;;8.33;5.23;;;14.80;89.30;;;;;;5041036;28;20479;-62
2023/04/14 10:12:12;;;;;;;14.27;8.20;;;15.10;86.10;;;;;;5032819;28;20986;-62
2023/04/14 10:14:39;;;;;;;12.73;5.20;;;15.30;85.60;;;;;;5060842;28;20499;-62
2023/04/14 10:17:06;;;;;;;11.93;5.63;;;15.10;85.50;;;;;;5058820;28;20494;-63
2023/04/14 10:19:33;;;;;;;12.93;4.00;;;15.20;87.70;;;;;;5046935;28;20823;-63
2023/04/14 10:22:00;;;;;;;12.53;7.60;;;15.40;86.80;;;;;;5040047;28;20483;-62
2023/04/14 10:24:27;;;;;;;16.27;5.00;;;15.40;87.20;;;;;;5047976;28;20480;-63
2023/04/14 10:26:54;;;;;;;11.03;5.37;;;15.80;87.20;;;;;;5045049;28;21011;-63
2023/04/14 10:29:23;;;;;;;18.67;5.30;;;15.20;82.90;;;;;;5056003;28;21174;-63
2023/04/14 10:31:53;;;;;;;11.57;7.20;;;15.10;81.90;;;;;;5053699;28;20490;-62
2023/04/14 10:34:23;;;;;;;11.37;4.37;;;15.30;84.20;;;;;;5053203;28;20494;-63
2023/04/14 10:36:50;;;;;;;7.30;3.97;;;15.40;81.80;;;;;;5055605;28;20527;-63
2023/04/14 10:39:22;;;;;;;7.73;3.87;;;15.20;76.80;;;;;;5032905;28;20571;-62
2023/04/14 10:41:50;;;;;;;12.03;6.97;;;14.90;78.90;;;;;;5055185;28;20486;-62
2023/04/14 10:44:27;;;;;;;8.20;3.40;;;15.20;84.10;;;;;;5052781;28;20582;-63
2023/04/14 10:46:55;;;;;;;16.50;6.30;;;;;;;;;;5034757;28;20479;-62
2023/04/14 10:49:25;;;;;;;14.33;4.33;;;14.80;77.10;;;;;;5027676;28;20483;-63
2023/04/14 10:51:52;;;;;;;11.53;5.00;;;14.80;80.40;;;;;;5050900;28;20486;-63
2023/04/14 10:54:18;;;;;;;8.87;4.93;;;14.90;81.90;;;;;;5037601;28;20560;-63
2023/04/14 10:57:11;;;;;;;6.53;4.20;;;15.20;83.40;;;;;;5041136;28;20998;-62
2023/04/14 10:59:42;;;;;;;10.73;4.03;;;15.40;85.10;;;;;;5065294;28;21017;-62
2023/04/14 11:02:26;;;;;;;8.67;4.80;;;15.50;80.90;;;;;;5047694;28;20541;-63
2023/04/14 11:05:01;;;;;;;10.77;5.23;;;15.80;84.00;;;;;;5057268;28;20469;-63
2023/04/14 11:07:30;;;;;;;10.60;4.20;;;16.00;82.40;;;;;;5076161;28;20482;-63
2023/04/14 11:10:00;;;;;;;17.63;7.27;;;16.10;82.00;;;;;;5061647;28;20493;-63
2023/04/14 11:12:28;;;;;;;9.17;5.00;;;16.50;83.70;;;;;;5064873;28;20489;-63
2023/04/14 11:15:01;;;;;;;10.77;5.23;;;17.00;84.80;;;;;;5066599;28;21048;-63
2023/04/14 11:17:29;;;;;;;8.93;4.83;;;17.00;80.70;;;;;;5063028;28;20967;-62
2023/04/14 11:19:57;;;;;;;27.27;7.90;;;17.20;80.10;;;;;;5069818;28;20550;-62
2023/04/14 11:22:37;;;;;;;18.73;5.93;;;17.20;78.00;;;;;;5008714;28;20911;-62
2023/04/14 11:25:04;;;;;;;21.03;6.90;;;17.40;80.10;;;;;;5063030;28;20486;-62
2023/04/14 11:27:33;;;;;;;6.50;3.87;;;;;;;;;;5072736;28;20739;-62
2023/04/14 11:30:01;;;;;;;17.93;9.67;;;17.40;76.10;;;;;;5068565;28;20507;-62
2023/04/14 11:32:28;;;;;;;11.50;5.13;;;17.30;74.40;;;;;;5067332;28;20490;-62
2023/04/14 11:34:54;;;;;;;17.70;6.80;;;17.20;76.60;;;;;;5067238;28;20521;-62
2023/04/14 11:37:21;;;;;;;15.10;4.30;;;17.10;74.50;;;;;;5073570;28;20483;-62
2023/04/14 11:39:50;;;;;;;11.30;4.97;;;17.10;73.70;;;;;;5072683;28;20478;-62
2023/04/14 11:42:16;;;;;;;7.03;3.00;;;17.10;74.30;;;;;;5065262;28;20518;-62
2023/04/14 11:44:43;;;;;;;6.53;3.43;;;17.10;76.60;;;;;;5060557;28;20478;-63
2023/04/14 11:47:11;;;;;;;9.20;3.60;;;16.50;73.10;;;;;;5049256;28;20491;-63
2023/04/14 11:49:38;;;;;;;10.37;4.67;;;16.30;74.40;;;;;;5062541;28;20474;-63
2023/04/14 11:52:07;;;;;;;18.57;9.03;;;16.20;75.40;;;;;;5071634;28;20498;-64
2023/04/14 11:54:37;;;;;;;14.00;5.50;;;16.30;76.30;;;;;;5071801;28;20487;-63
2023/04/14 11:57:09;;;;;;;19.53;6.67;;;16.40;76.50;;;;;;5049512;28;20467;-62
2023/04/14 11:59:42;;;;;;;11.20;5.63;;;16.50;75.20;;;;;;5046029;28;20495;-62
2023/04/14 12:02:17;;;;;;;8.70;3.90;;;16.70;76.00;;;;;;5062676;28;20482;-63
2023/04/14 12:04:44;;;;;;;8.40;4.33;;;16.90;76.40;;;;;;5040056;28;20486;-62
2023/04/14 12:07:12;;;;;;;6.37;3.47;;;16.50;73.30;;;;;;5068163;28;20512;-63
2023/04/14 12:09:41;;;;;;;25.33;5.13;;;16.50;69.80;;;;;;5063005;28;20779;-62
2023/04/14 12:12:10;;;;;;;14.80;6.53;;;16.60;73.70;;;;;;5049918;28;20831;-62
2023/04/14 12:14:38;;;;;;;9.00;4.20;;;16.40;73.30;;;;;;5069109;28;20533;-63
2023/04/14 12:17:06;;;;;;;28.77;7.40;;;16.40;75.10;;;;;;5055538;28;21179;-62
2023/04/14 12:19:35;;;;;;;13.40;5.50;;;16.60;73.70;;;;;;5042105;28;20910;-63
2023/04/14 12:22:01;;;;;;;25.23;10.00;;;16.90;73.40;;;;;;5063895;28;20965;-62
2023/04/14 12:24:34;;;;;;;10.37;3.07;;;17.10;75.70;;;;;;5079136;28;20494;-64
2023/04/14 12:27:03;;;;;;;19.60;9.80;;;17.00;72.00;;;;;;5055517;28;20915;-64
2023/04/14 12:29:30;;;;;;;13.57;6.40;;;17.20;71.60;;;;;;5052735;28;20501;-63
2023/04/14 12:31:57;;;;;;;19.13;8.63;;;17.40;70.40;;;;;;5046962;28;20818;-64
2023/04/14 12:34:25;;;;;;;9.63;4.40;;;17.40;73.50;;;;;;5056395;28;20482;-64
2023/04/14 12:36:53;;;;;;;13.87;6.97;;;17.70;72.60;;;;;;5046738;28;21209;-63
2023/04/14 12:39:21;;;;;;;9.33;3.83;;;17.70;73.50;;;;;;5066138;28;20504;-63
2023/04/14 12:41:48;;;;;;;8.17;3.60;;;17.70;67.90;;;;;;5062776;28;21075;-64
2023/04/14 12:44:16;;;;;;;9.37;2.67;;;17.90;71.20;;;;;;5073506;28;20486;-64
2023/04/14 12:46:47;;;;;;;7.47;4.30;;;17.80;69.20;;;;;;5067206;28;20868;-64
2023/04/14 12:49:30;;;;;;;9.33;3.53;;;17.10;64.50;;;;;;5067477;28;20491;-64
2023/04/14 12:51:58;;;;;;;23.83;9.73;;;17.00;67.50;;;;;;5058603;28;20508;-63